sensor_id;sensor_type;location;lat;lon;timestamp;P1;durP1;ratioP1;P2;durP2;ratioP2
31298;SDS011;17927;52.350;13.402;2022-10-22T00:01:05;10.15;;;8.48;;
31298;SDS011;17927;52.350;13.402;2022-10-22T00:03:31;10.10;;;8.85;;
31298;SDS011;17927;52.350;13.402;2022-10-22T00:05:56;9.90;;;8.90;;
31298;SDS011;17927;52.350;13.402;2022-10-22T00:08:21;9.63;;;8.35;;
31298;SDS011;17927;52.350;13.402;2022-10-22T00:10:47;15.40;;;9.55;;
31298;SDS011;17927;52.350;13.402;2022-10-22T00:13:12;10.32;;;9.05;;
31298;SDS011;17927;52.350;13.402;2022-10-22T00:15:37;9.98;;;8.93;;
31298;SDS011;17927;52.350;13.402;2022-10-22T00:18:03;12.13;;;9.63;;
31298;SDS011;17927;52.350;13.402;2022-10-22T00:20:28;12.88;;;8.73;;
31298;SDS011;17927;52.350;13.402;2022-10-22T00:22:53;10.63;;;9.57;;
31298;SDS011;17927;52.350;13.402;2022-10-22T00:25:19;9.95;;;9.00;;
31298;SDS011;17927;52.350;13.402;2022-10-22T00:27:44;9.18;;;7.80;;
31298;SDS011;17927;52.350;13.402;2022-10-22T00:30:09;14.63;;;9.15;;
31298;SDS011;17927;52.350;13.402;2022-10-22T00:32:35;9.90;;;8.95;;
31298;SDS011;17927;52.350;13.402;2022-10-22T00:35:00;8.80;;;7.95;;
31298;SDS011;17927;52.350;13.402;2022-10-22T00:37:26;11.98;;;8.95;;
31298;SDS011;17927;52.350;13.402;2022-10-22T00:39:51;11.32;;;9.52;;
31298;SDS011;17927;52.350;13.402;2022-10-22T00:42:17;9.73;;;8.82;;
31298;SDS011;17927;52.350;13.402;2022-10-22T00:45:04;12.70;;;9.73;;
31298;SDS011;17927;52.350;13.402;2022-10-22T00:47:34;13.35;;;10.13;;
31298;SDS011;17927;52.350;13.402;2022-10-22T00:50:04;10.50;;;9.50;;
31298;SDS011;17927;52.350;13.402;2022-10-22T00:52:33;10.55;;;8.65;;
31298;SDS011;17927;52.350;13.402;2022-10-22T00:54:59;12.07;;;9.45;;
31298;SDS011;17927;52.350;13.402;2022-10-22T00:57:25;11.20;;;10.07;;
31298;SDS011;17927;52.350;13.402;2022-10-22T00:59:51;11.43;;;9.40;;
31298;SDS011;17927;52.350;13.402;2022-10-22T01:02:19;10.93;;;9.93;;
31298;SDS011;17927;52.350;13.402;2022-10-22T01:04:44;12.93;;;9.65;;
31298;SDS011;17927;52.350;13.402;2022-10-22T01:07:12;10.93;;;9.82;;
31298;SDS011;17927;52.350;13.402;2022-10-22T01:09:45;12.23;;;9.68;;
31298;SDS011;17927;52.350;13.402;2022-10-22T01:12:21;12.93;;;10.20;;
31298;SDS011;17927;52.350;13.402;2022-10-22T01:15:06;11.68;;;9.82;;
31298;SDS011;17927;52.350;13.402;2022-10-22T01:17:48;12.48;;;9.23;;
31298;SDS011;17927;52.350;13.402;2022-10-22T01:20:28;11.57;;;10.30;;
31298;SDS011;17927;52.350;13.402;2022-10-22T01:26:12;11.43;;;10.25;;
31298;SDS011;17927;52.350;13.402;2022-10-22T01:28:57;10.80;;;9.80;;
31298;SDS011;17927;52.350;13.402;2022-10-22T01:31:31;12.88;;;9.45;;
31298;SDS011;17927;52.350;13.402;2022-10-22T01:34:00;10.63;;;9.63;;
31298;SDS011;17927;52.350;13.402;2022-10-22T01:36:28;18.45;;;10.15;;
31298;SDS011;17927;52.350;13.402;2022-10-22T01:38:57;13.13;;;10.68;;
31298;SDS011;17927;52.350;13.402;2022-10-22T01:41:25;12.43;;;10.43;;
31298;SDS011;17927;52.350;13.402;2022-10-22T01:43:54;15.40;;;9.90;;
31298;SDS011;17927;52.350;13.402;2022-10-22T01:46:20;11.15;;;9.27;;
31298;SDS011;17927;52.350;13.402;2022-10-22T01:51:18;11.80;;;10.13;;
31298;SDS011;17927;52.350;13.402;2022-10-22T02:02:03;11.07;;;9.25;;
31298;SDS011;17927;52.350;13.402;2022-10-22T02:04:57;13.68;;;10.27;;
31298;SDS011;17927;52.350;13.402;2022-10-22T02:07:30;11.38;;;9.77;;
31298;SDS011;17927;52.350;13.402;2022-10-22T02:09:59;13.93;;;9.43;;
31298;SDS011;17927;52.350;13.402;2022-10-22T02:12:26;11.10;;;10.10;;
31298;SDS011;17927;52.350;13.402;2022-10-22T02:14:54;11.57;;;9.43;;
31298;SDS011;17927;52.350;13.402;2022-10-22T02:17:21;11.77;;;10.38;;
31298;SDS011;17927;52.350;13.402;2022-10-22T02:19:51;11.60;;;10.43;;
31298;SDS011;17927;52.350;13.402;2022-10-22T02:22:20;13.02;;;9.85;;
31298;SDS011;17927;52.350;13.402;2022-10-22T02:24:46;9.82;;;8.93;;
31298;SDS011;17927;52.350;13.402;2022-10-22T02:27:18;12.50;;;10.07;;
31298;SDS011;17927;52.350;13.402;2022-10-22T02:30:08;10.88;;;9.77;;
31298;SDS011;17927;52.350;13.402;2022-10-22T02:35:09;12.63;;;10.90;;
31298;SDS011;17927;52.350;13.402;2022-10-22T02:37:41;10.55;;;9.57;;
31298;SDS011;17927;52.350;13.402;2022-10-22T02:40:07;9.88;;;8.73;;
31298;SDS011;17927;52.350;13.402;2022-10-22T02:42:33;10.60;;;9.52;;
31298;SDS011;17927;52.350;13.402;2022-10-22T02:45:00;11.95;;;9.52;;
31298;SDS011;17927;52.350;13.402;2022-10-22T02:47:25;11.30;;;10.10;;
31298;SDS011;17927;52.350;13.402;2022-10-22T02:49:50;11.27;;;9.50;;
31298;SDS011;17927;52.350;13.402;2022-10-22T02:52:16;15.85;;;9.10;;
31298;SDS011;17927;52.350;13.402;2022-10-22T02:54:41;13.38;;;10.73;;
31298;SDS011;17927;52.350;13.402;2022-10-22T02:57:06;12.82;;;10.18;;
31298;SDS011;17927;52.350;13.402;2022-10-22T02:59:32;9.80;;;8.90;;
31298;SDS011;17927;52.350;13.402;2022-10-22T03:01:57;10.10;;;9.10;;
31298;SDS011;17927;52.350;13.402;2022-10-22T03:04:22;11.43;;;9.82;;
31298;SDS011;17927;52.350;13.402;2022-10-22T03:06:47;10.80;;;9.52;;
31298;SDS011;17927;52.350;13.402;2022-10-22T03:09:13;9.77;;;8.77;;
31298;SDS011;17927;52.350;13.402;2022-10-22T03:11:38;10.02;;;9.02;;
31298;SDS011;17927;52.350;13.402;2022-10-22T03:14:04;9.63;;;8.70;;
31298;SDS011;17927;52.350;13.402;2022-10-22T03:16:29;10.90;;;9.73;;
31298;SDS011;17927;52.350;13.402;2022-10-22T03:18:54;9.90;;;9.05;;
31298;SDS011;17927;52.350;13.402;2022-10-22T03:21:23;13.30;;;9.93;;
31298;SDS011;17927;52.350;13.402;2022-10-22T03:23:54;10.50;;;9.40;;
31298;SDS011;17927;52.350;13.402;2022-10-22T03:26:20;10.25;;;9.25;;
31298;SDS011;17927;52.350;13.402;2022-10-22T03:28:45;11.10;;;10.00;;
31298;SDS011;17927;52.350;13.402;2022-10-22T03:31:12;9.60;;;8.70;;
31298;SDS011;17927;52.350;13.402;2022-10-22T03:33:38;10.50;;;8.93;;
31298;SDS011;17927;52.350;13.402;2022-10-22T03:36:03;10.75;;;9.52;;
31298;SDS011;17927;52.350;13.402;2022-10-22T03:38:30;12.27;;;9.45;;
31298;SDS011;17927;52.350;13.402;2022-10-22T03:40:56;11.85;;;10.13;;
31298;SDS011;17927;52.350;13.402;2022-10-22T03:43:21;10.48;;;9.38;;
31298;SDS011;17927;52.350;13.402;2022-10-22T03:45:47;10.13;;;9.18;;
31298;SDS011;17927;52.350;13.402;2022-10-22T03:48:12;10.55;;;9.43;;
31298;SDS011;17927;52.350;13.402;2022-10-22T03:50:37;9.75;;;8.85;;
31298;SDS011;17927;52.350;13.402;2022-10-22T03:53:02;10.48;;;9.13;;
31298;SDS011;17927;52.350;13.402;2022-10-22T03:55:28;11.13;;;9.95;;
31298;SDS011;17927;52.350;13.402;2022-10-22T03:57:53;16.30;;;11.75;;
31298;SDS011;17927;52.350;13.402;2022-10-22T04:00:19;20.33;;;17.15;;
31298;SDS011;17927;52.350;13.402;2022-10-22T04:02:44;12.75;;;10.98;;
31298;SDS011;17927;52.350;13.402;2022-10-22T04:05:09;12.20;;;9.73;;
31298;SDS011;17927;52.350;13.402;2022-10-22T04:07:34;11.63;;;10.48;;
31298;SDS011;17927;52.350;13.402;2022-10-22T04:10:00;9.75;;;8.77;;
31298;SDS011;17927;52.350;13.402;2022-10-22T04:12:25;9.88;;;8.55;;
31298;SDS011;17927;52.350;13.402;2022-10-22T04:14:50;8.93;;;8.02;;
31298;SDS011;17927;52.350;13.402;2022-10-22T04:17:15;12.88;;;9.63;;
31298;SDS011;17927;52.350;13.402;2022-10-22T04:19:41;10.25;;;9.10;;
31298;SDS011;17927;52.350;13.402;2022-10-22T04:22:06;10.85;;;9.32;;
31298;SDS011;17927;52.350;13.402;2022-10-22T04:24:31;10.15;;;8.70;;
31298;SDS011;17927;52.350;13.402;2022-10-22T04:26:57;9.68;;;8.68;;
31298;SDS011;17927;52.350;13.402;2022-10-22T04:29:22;8.40;;;7.65;;
31298;SDS011;17927;52.350;13.402;2022-10-22T04:31:48;8.98;;;8.15;;
31298;SDS011;17927;52.350;13.402;2022-10-22T04:34:13;9.55;;;8.32;;
31298;SDS011;17927;52.350;13.402;2022-10-22T04:36:38;8.98;;;8.18;;
31298;SDS011;17927;52.350;13.402;2022-10-22T04:39:04;9.68;;;8.60;;
31298;SDS011;17927;52.350;13.402;2022-10-22T04:41:34;8.77;;;7.88;;
31298;SDS011;17927;52.350;13.402;2022-10-22T04:44:01;10.93;;;8.35;;
31298;SDS011;17927;52.350;13.402;2022-10-22T04:46:27;9.90;;;8.32;;
31298;SDS011;17927;52.350;13.402;2022-10-22T04:48:54;8.77;;;8.07;;
31298;SDS011;17927;52.350;13.402;2022-10-22T04:51:20;10.70;;;8.27;;
31298;SDS011;17927;52.350;13.402;2022-10-22T04:53:47;9.07;;;8.23;;
31298;SDS011;17927;52.350;13.402;2022-10-22T04:56:14;8.23;;;7.47;;
31298;SDS011;17927;52.350;13.402;2022-10-22T04:58:44;9.98;;;7.93;;
31298;SDS011;17927;52.350;13.402;2022-10-22T05:01:26;8.32;;;7.68;;
31298;SDS011;17927;52.350;13.402;2022-10-22T05:03:54;7.88;;;7.22;;
31298;SDS011;17927;52.350;13.402;2022-10-22T05:06:21;8.50;;;7.20;;
31298;SDS011;17927;52.350;13.402;2022-10-22T05:08:51;7.90;;;7.10;;
31298;SDS011;17927;52.350;13.402;2022-10-22T05:11:18;7.18;;;6.55;;
31298;SDS011;17927;52.350;13.402;2022-10-22T05:13:45;7.85;;;7.15;;
31298;SDS011;17927;52.350;13.402;2022-10-22T05:16:11;8.18;;;7.47;;
31298;SDS011;17927;52.350;13.402;2022-10-22T05:18:38;7.97;;;7.25;;
31298;SDS011;17927;52.350;13.402;2022-10-22T05:21:12;7.68;;;7.05;;
31298;SDS011;17927;52.350;13.402;2022-10-22T05:23:40;7.32;;;6.78;;
31298;SDS011;17927;52.350;13.402;2022-10-22T05:26:07;9.27;;;7.95;;
31298;SDS011;17927;52.350;13.402;2022-10-22T05:28:34;8.50;;;7.75;;
31298;SDS011;17927;52.350;13.402;2022-10-22T05:31:00;12.00;;;7.93;;
31298;SDS011;17927;52.350;13.402;2022-10-22T05:33:29;9.50;;;7.80;;
31298;SDS011;17927;52.350;13.402;2022-10-22T05:35:56;9.82;;;8.32;;
31298;SDS011;17927;52.350;13.402;2022-10-22T05:38:22;9.15;;;8.30;;
31298;SDS011;17927;52.350;13.402;2022-10-22T05:43:33;9.88;;;7.93;;
31298;SDS011;17927;52.350;13.402;2022-10-22T05:46:03;8.43;;;7.70;;
31298;SDS011;17927;52.350;13.402;2022-10-22T05:48:33;8.27;;;7.55;;
31298;SDS011;17927;52.350;13.402;2022-10-22T05:51:06;14.10;;;8.20;;
31298;SDS011;17927;52.350;13.402;2022-10-22T05:53:36;11.40;;;8.98;;
31298;SDS011;17927;52.350;13.402;2022-10-22T05:56:05;8.60;;;7.80;;
31298;SDS011;17927;52.350;13.402;2022-10-22T05:58:33;8.57;;;7.72;;
31298;SDS011;17927;52.350;13.402;2022-10-22T06:01:05;11.38;;;8.02;;
31298;SDS011;17927;52.350;13.402;2022-10-22T06:03:33;10.38;;;8.48;;
31298;SDS011;17927;52.350;13.402;2022-10-22T06:05:59;17.23;;;8.15;;
31298;SDS011;17927;52.350;13.402;2022-10-22T06:08:25;14.10;;;9.70;;
31298;SDS011;17927;52.350;13.402;2022-10-22T06:10:51;9.95;;;9.05;;
31298;SDS011;17927;52.350;13.402;2022-10-22T06:13:17;9.88;;;8.95;;
31298;SDS011;17927;52.350;13.402;2022-10-22T06:15:42;11.25;;;9.50;;
31298;SDS011;17927;52.350;13.402;2022-10-22T06:18:08;10.82;;;8.13;;
31298;SDS011;17927;52.350;13.402;2022-10-22T06:20:33;9.63;;;8.50;;
31298;SDS011;17927;52.350;13.402;2022-10-22T06:22:59;12.55;;;9.27;;
31298;SDS011;17927;52.350;13.402;2022-10-22T06:25:24;9.52;;;8.63;;
31298;SDS011;17927;52.350;13.402;2022-10-22T06:27:49;9.68;;;8.68;;
31298;SDS011;17927;52.350;13.402;2022-10-22T06:30:15;9.48;;;8.68;;
31298;SDS011;17927;52.350;13.402;2022-10-22T06:32:41;9.70;;;8.77;;
31298;SDS011;17927;52.350;13.402;2022-10-22T06:35:06;9.73;;;8.73;;
31298;SDS011;17927;52.350;13.402;2022-10-22T06:37:31;10.13;;;9.20;;
31298;SDS011;17927;52.350;13.402;2022-10-22T06:39:57;10.00;;;9.00;;
31298;SDS011;17927;52.350;13.402;2022-10-22T06:42:22;10.40;;;9.40;;
31298;SDS011;17927;52.350;13.402;2022-10-22T06:44:47;9.38;;;8.45;;
31298;SDS011;17927;52.350;13.402;2022-10-22T06:47:12;10.18;;;9.05;;
31298;SDS011;17927;52.350;13.402;2022-10-22T06:49:38;9.35;;;8.32;;
31298;SDS011;17927;52.350;13.402;2022-10-22T06:52:03;9.30;;;8.32;;
31298;SDS011;17927;52.350;13.402;2022-10-22T06:54:28;9.63;;;8.55;;
31298;SDS011;17927;52.350;13.402;2022-10-22T06:56:53;9.60;;;8.70;;
31298;SDS011;17927;52.350;13.402;2022-10-22T06:59:19;10.00;;;9.00;;
31298;SDS011;17927;52.350;13.402;2022-10-22T07:01:44;8.77;;;7.97;;
31298;SDS011;17927;52.350;13.402;2022-10-22T07:04:09;8.57;;;7.78;;
31298;SDS011;17927;52.350;13.402;2022-10-22T07:06:34;9.20;;;8.30;;
31298;SDS011;17927;52.350;13.402;2022-10-22T07:09:00;9.15;;;8.35;;
31298;SDS011;17927;52.350;13.402;2022-10-22T07:11:26;8.75;;;7.95;;
31298;SDS011;17927;52.350;13.402;2022-10-22T07:13:54;9.30;;;8.45;;
31298;SDS011;17927;52.350;13.402;2022-10-22T07:16:20;10.05;;;8.68;;
31298;SDS011;17927;52.350;13.402;2022-10-22T07:18:45;9.20;;;8.50;;
31298;SDS011;17927;52.350;13.402;2022-10-22T07:21:12;13.80;;;10.25;;
31298;SDS011;17927;52.350;13.402;2022-10-22T07:23:40;11.13;;;10.05;;
31298;SDS011;17927;52.350;13.402;2022-10-22T07:26:06;35.85;;;27.15;;
31298;SDS011;17927;52.350;13.402;2022-10-22T07:28:32;13.02;;;11.35;;
31298;SDS011;17927;52.350;13.402;2022-10-22T07:30:59;12.52;;;9.73;;
31298;SDS011;17927;52.350;13.402;2022-10-22T07:33:25;11.48;;;10.25;;
31298;SDS011;17927;52.350;13.402;2022-10-22T07:35:55;21.05;;;15.98;;
31298;SDS011;17927;52.350;13.402;2022-10-22T07:38:25;10.75;;;9.75;;
31298;SDS011;17927;52.350;13.402;2022-10-22T07:40:50;10.80;;;9.85;;
31298;SDS011;17927;52.350;13.402;2022-10-22T07:43:16;9.77;;;8.93;;
31298;SDS011;17927;52.350;13.402;2022-10-22T07:45:41;9.73;;;8.80;;
31298;SDS011;17927;52.350;13.402;2022-10-22T07:48:06;10.45;;;9.32;;
31298;SDS011;17927;52.350;13.402;2022-10-22T07:50:31;9.95;;;9.05;;
31298;SDS011;17927;52.350;13.402;2022-10-22T07:52:57;9.82;;;8.93;;
31298;SDS011;17927;52.350;13.402;2022-10-22T07:55:22;9.65;;;8.68;;
31298;SDS011;17927;52.350;13.402;2022-10-22T07:57:47;8.52;;;7.78;;
31298;SDS011;17927;52.350;13.402;2022-10-22T08:00:13;9.07;;;8.27;;
31298;SDS011;17927;52.350;13.402;2022-10-22T08:02:39;11.23;;;8.90;;
31298;SDS011;17927;52.350;13.402;2022-10-22T08:05:04;12.23;;;9.10;;
31298;SDS011;17927;52.350;13.402;2022-10-22T08:07:30;9.32;;;8.20;;
31298;SDS011;17927;52.350;13.402;2022-10-22T08:09:55;10.27;;;9.27;;
31298;SDS011;17927;52.350;13.402;2022-10-22T08:12:20;9.60;;;8.57;;
31298;SDS011;17927;52.350;13.402;2022-10-22T08:14:45;9.75;;;8.68;;
31298;SDS011;17927;52.350;13.402;2022-10-22T08:17:11;10.90;;;9.90;;
31298;SDS011;17927;52.350;13.402;2022-10-22T08:19:36;10.63;;;8.70;;
31298;SDS011;17927;52.350;13.402;2022-10-22T08:22:02;10.32;;;9.32;;
31298;SDS011;17927;52.350;13.402;2022-10-22T08:24:27;9.43;;;8.50;;
31298;SDS011;17927;52.350;13.402;2022-10-22T08:26:53;10.07;;;9.07;;
31298;SDS011;17927;52.350;13.402;2022-10-22T08:29:19;13.18;;;7.88;;
31298;SDS011;17927;52.350;13.402;2022-10-22T08:31:46;9.68;;;8.77;;
31298;SDS011;17927;52.350;13.402;2022-10-22T08:34:12;10.27;;;9.38;;
31298;SDS011;17927;52.350;13.402;2022-10-22T08:36:37;10.65;;;9.50;;
31298;SDS011;17927;52.350;13.402;2022-10-22T08:39:02;10.57;;;9.63;;
31298;SDS011;17927;52.350;13.402;2022-10-22T08:41:28;14.57;;;9.63;;
31298;SDS011;17927;52.350;13.402;2022-10-22T08:46:57;10.45;;;9.45;;
31298;SDS011;17927;52.350;13.402;2022-10-22T08:49:35;9.73;;;8.77;;
31298;SDS011;17927;52.350;13.402;2022-10-22T08:52:03;10.57;;;9.55;;
31298;SDS011;17927;52.350;13.402;2022-10-22T08:54:47;12.07;;;9.60;;
31298;SDS011;17927;52.350;13.402;2022-10-22T08:57:27;10.85;;;9.63;;
31298;SDS011;17927;52.350;13.402;2022-10-22T09:03:04;10.52;;;8.75;;
31298;SDS011;17927;52.350;13.402;2022-10-22T09:05:37;12.73;;;9.63;;
31298;SDS011;17927;52.350;13.402;2022-10-22T09:08:11;10.43;;;9.32;;
31298;SDS011;17927;52.350;13.402;2022-10-22T09:10:41;10.38;;;9.38;;
31298;SDS011;17927;52.350;13.402;2022-10-22T09:13:13;10.35;;;9.43;;
31298;SDS011;17927;52.350;13.402;2022-10-22T09:15:41;10.68;;;9.57;;
31298;SDS011;17927;52.350;13.402;2022-10-22T09:18:11;10.38;;;9.38;;
31298;SDS011;17927;52.350;13.402;2022-10-22T09:21:03;11.18;;;9.45;;
31298;SDS011;17927;52.350;13.402;2022-10-22T09:26:07;10.87;;;9.77;;
31298;SDS011;17927;52.350;13.402;2022-10-22T09:28:38;13.20;;;10.10;;
31298;SDS011;17927;52.350;13.402;2022-10-22T09:31:08;12.65;;;9.68;;
31298;SDS011;17927;52.350;13.402;2022-10-22T09:33:36;14.00;;;10.05;;
31298;SDS011;17927;52.350;13.402;2022-10-22T09:36:02;10.73;;;9.43;;
31298;SDS011;17927;52.350;13.402;2022-10-22T09:38:31;10.73;;;8.88;;
31298;SDS011;17927;52.350;13.402;2022-10-22T09:41:03;10.68;;;9.13;;
31298;SDS011;17927;52.350;13.402;2022-10-22T09:43:29;11.70;;;9.50;;
31298;SDS011;17927;52.350;13.402;2022-10-22T09:45:57;10.18;;;9.10;;
31298;SDS011;17927;52.350;13.402;2022-10-22T09:48:31;12.60;;;10.15;;
31298;SDS011;17927;52.350;13.402;2022-10-22T09:51:05;9.50;;;8.70;;
31298;SDS011;17927;52.350;13.402;2022-10-22T09:53:45;9.07;;;8.18;;
31298;SDS011;17927;52.350;13.402;2022-10-22T09:56:54;9.45;;;8.55;;
31298;SDS011;17927;52.350;13.402;2022-10-22T09:59:27;9.30;;;8.02;;
31298;SDS011;17927;52.350;13.402;2022-10-22T10:01:55;9.45;;;8.48;;
31298;SDS011;17927;52.350;13.402;2022-10-22T10:06:52;9.07;;;7.45;;
31298;SDS011;17927;52.350;13.402;2022-10-22T10:09:21;8.80;;;8.05;;
31298;SDS011;17927;52.350;13.402;2022-10-22T10:12:07;9.30;;;8.48;;
31298;SDS011;17927;52.350;13.402;2022-10-22T10:15:06;8.85;;;7.90;;
31298;SDS011;17927;52.350;13.402;2022-10-22T10:18:11;10.77;;;7.30;;
31298;SDS011;17927;52.350;13.402;2022-10-22T10:23:38;8.75;;;7.28;;
31298;SDS011;17927;52.350;13.402;2022-10-22T10:34:37;7.63;;;6.72;;
31298;SDS011;17927;52.350;13.402;2022-10-22T10:37:05;9.15;;;6.65;;
31298;SDS011;17927;52.350;13.402;2022-10-22T10:45:17;7.78;;;7.10;;
31298;SDS011;17927;52.350;13.402;2022-10-22T10:47:49;7.57;;;6.80;;
31298;SDS011;17927;52.350;13.402;2022-10-22T10:50:36;8.68;;;6.80;;
31298;SDS011;17927;52.350;13.402;2022-10-22T10:55:48;9.57;;;6.38;;
31298;SDS011;17927;52.350;13.402;2022-10-22T11:04:07;7.80;;;7.15;;
31298;SDS011;17927;52.350;13.402;2022-10-22T11:06:48;13.13;;;8.07;;
31298;SDS011;17927;52.350;13.402;2022-10-22T11:09:27;14.40;;;10.00;;
31298;SDS011;17927;52.350;13.402;2022-10-22T11:12:04;14.25;;;7.68;;
31298;SDS011;17927;52.350;13.402;2022-10-22T11:14:44;8.55;;;6.82;;
31298;SDS011;17927;52.350;13.402;2022-10-22T11:17:19;6.80;;;6.30;;
31298;SDS011;17927;52.350;13.402;2022-10-22T11:30:29;12.52;;;5.80;;
31298;SDS011;17927;52.350;13.402;2022-10-22T11:33:00;5.95;;;5.35;;
31298;SDS011;17927;52.350;13.402;2022-10-22T11:35:33;6.47;;;4.95;;
31298;SDS011;17927;52.350;13.402;2022-10-22T11:38:00;6.45;;;5.78;;
31298;SDS011;17927;52.350;13.402;2022-10-22T11:42:55;6.30;;;5.30;;
31298;SDS011;17927;52.350;13.402;2022-10-22T11:55:44;12.10;;;4.32;;
31298;SDS011;17927;52.350;13.402;2022-10-22T12:03:37;7.80;;;3.90;;
31298;SDS011;17927;52.350;13.402;2022-10-22T12:16:28;5.27;;;3.67;;
31298;SDS011;17927;52.350;13.402;2022-10-22T12:19:44;4.97;;;4.07;;
31298;SDS011;17927;52.350;13.402;2022-10-22T12:24:33;3.30;;;2.80;;
31298;SDS011;17927;52.350;13.402;2022-10-22T12:27:01;3.97;;;2.33;;
31298;SDS011;17927;52.350;13.402;2022-10-22T12:29:30;5.70;;;3.60;;
31298;SDS011;17927;52.350;13.402;2022-10-22T12:31:56;3.50;;;3.05;;
31298;SDS011;17927;52.350;13.402;2022-10-22T12:34:28;2.80;;;2.40;;
31298;SDS011;17927;52.350;13.402;2022-10-22T12:36:53;11.93;;;2.80;;
31298;SDS011;17927;52.350;13.402;2022-10-22T12:39:19;3.40;;;2.78;;
31298;SDS011;17927;52.350;13.402;2022-10-22T12:41:46;5.00;;;2.00;;
31298;SDS011;17927;52.350;13.402;2022-10-22T12:44:13;7.82;;;2.60;;
31298;SDS011;17927;52.350;13.402;2022-10-22T12:46:40;7.22;;;1.88;;
31298;SDS011;17927;52.350;13.402;2022-10-22T12:49:13;3.90;;;1.65;;
31298;SDS011;17927;52.350;13.402;2022-10-22T12:51:43;3.33;;;2.00;;
31298;SDS011;17927;52.350;13.402;2022-10-22T12:54:12;2.30;;;1.90;;
31298;SDS011;17927;52.350;13.402;2022-10-22T12:56:45;2.90;;;1.98;;
31298;SDS011;17927;52.350;13.402;2022-10-22T12:59:14;6.38;;;2.13;;
31298;SDS011;17927;52.350;13.402;2022-10-22T13:01:44;2.30;;;2.03;;
31298;SDS011;17927;52.350;13.402;2022-10-22T13:06:44;6.30;;;2.10;;
31298;SDS011;17927;52.350;13.402;2022-10-22T13:09:40;2.92;;;1.35;;
31298;SDS011;17927;52.350;13.402;2022-10-22T13:12:08;3.00;;;1.35;;
31298;SDS011;17927;52.350;13.402;2022-10-22T13:14:38;2.20;;;1.73;;
31298;SDS011;17927;52.350;13.402;2022-10-22T13:17:14;5.47;;;1.50;;
31298;SDS011;17927;52.350;13.402;2022-10-22T13:19:48;2.60;;;1.80;;
31298;SDS011;17927;52.350;13.402;2022-10-22T13:22:27;4.43;;;1.60;;
31298;SDS011;17927;52.350;13.402;2022-10-22T13:27:50;4.60;;;1.77;;
31298;SDS011;17927;52.350;13.402;2022-10-22T13:32:47;4.10;;;1.27;;
31298;SDS011;17927;52.350;13.402;2022-10-22T13:35:14;5.22;;;1.70;;
31298;SDS011;17927;52.350;13.402;2022-10-22T13:37:44;7.18;;;1.80;;
31298;SDS011;17927;52.350;13.402;2022-10-22T13:40:10;6.03;;;1.92;;
31298;SDS011;17927;52.350;13.402;2022-10-22T13:42:36;3.92;;;1.88;;
31298;SDS011;17927;52.350;13.402;2022-10-22T13:45:03;6.22;;;1.27;;
31298;SDS011;17927;52.350;13.402;2022-10-22T13:47:28;2.95;;;1.10;;
31298;SDS011;17927;52.350;13.402;2022-10-22T13:49:54;2.55;;;1.38;;
31298;SDS011;17927;52.350;13.402;2022-10-22T13:52:39;1.30;;;1.20;;
31298;SDS011;17927;52.350;13.402;2022-10-22T13:55:14;2.17;;;1.08;;
31298;SDS011;17927;52.350;13.402;2022-10-22T13:57:41;2.10;;;1.38;;
31298;SDS011;17927;52.350;13.402;2022-10-22T14:00:08;2.00;;;1.10;;
31298;SDS011;17927;52.350;13.402;2022-10-22T14:02:35;5.00;;;2.17;;
31298;SDS011;17927;52.350;13.402;2022-10-22T14:05:01;3.35;;;1.30;;
31298;SDS011;17927;52.350;13.402;2022-10-22T14:07:28;3.28;;;1.67;;
31298;SDS011;17927;52.350;13.402;2022-10-22T14:09:53;2.65;;;1.38;;
31298;SDS011;17927;52.350;13.402;2022-10-22T14:12:19;1.73;;;1.50;;
31298;SDS011;17927;52.350;13.402;2022-10-22T14:14:44;2.22;;;1.23;;
31298;SDS011;17927;52.350;13.402;2022-10-22T14:17:13;5.30;;;1.40;;
31298;SDS011;17927;52.350;13.402;2022-10-22T14:19:40;3.08;;;1.17;;
31298;SDS011;17927;52.350;13.402;2022-10-22T14:22:15;3.53;;;1.67;;
31298;SDS011;17927;52.350;13.402;2022-10-22T14:24:44;2.85;;;1.40;;
31298;SDS011;17927;52.350;13.402;2022-10-22T14:27:11;3.72;;;1.35;;
31298;SDS011;17927;52.350;13.402;2022-10-22T14:29:38;1.85;;;1.30;;
31298;SDS011;17927;52.350;13.402;2022-10-22T14:32:11;2.10;;;1.40;;
31298;SDS011;17927;52.350;13.402;2022-10-22T14:34:39;4.30;;;1.52;;
31298;SDS011;17927;52.350;13.402;2022-10-22T14:37:04;7.50;;;1.40;;
31298;SDS011;17927;52.350;13.402;2022-10-22T14:39:37;5.82;;;1.48;;
31298;SDS011;17927;52.350;13.402;2022-10-22T14:42:02;3.92;;;1.88;;
31298;SDS011;17927;52.350;13.402;2022-10-22T14:44:27;3.95;;;1.30;;
31298;SDS011;17927;52.350;13.402;2022-10-22T14:46:52;3.25;;;1.42;;
31298;SDS011;17927;52.350;13.402;2022-10-22T14:49:20;3.47;;;1.80;;
31298;SDS011;17927;52.350;13.402;2022-10-22T14:51:45;4.95;;;1.40;;
31298;SDS011;17927;52.350;13.402;2022-10-22T14:54:10;2.83;;;1.13;;
31298;SDS011;17927;52.350;13.402;2022-10-22T14:56:35;3.00;;;1.33;;
31298;SDS011;17927;52.350;13.402;2022-10-22T14:59:01;3.10;;;1.60;;
31298;SDS011;17927;52.350;13.402;2022-10-22T15:01:27;4.18;;;1.73;;
31298;SDS011;17927;52.350;13.402;2022-10-22T15:03:52;3.63;;;1.25;;
31298;SDS011;17927;52.350;13.402;2022-10-22T15:06:17;3.75;;;1.60;;
31298;SDS011;17927;52.350;13.402;2022-10-22T15:08:43;7.63;;;1.70;;
31298;SDS011;17927;52.350;13.402;2022-10-22T15:11:09;4.10;;;1.58;;
31298;SDS011;17927;52.350;13.402;2022-10-22T15:13:36;2.75;;;1.27;;
31298;SDS011;17927;52.350;13.402;2022-10-22T15:16:04;7.68;;;2.20;;
31298;SDS011;17927;52.350;13.402;2022-10-22T15:18:30;393.35;;;227.70;;
31298;SDS011;17927;52.350;13.402;2022-10-22T15:20:56;335.50;;;193.73;;
31298;SDS011;17927;52.350;13.402;2022-10-22T15:23:26;151.52;;;85.68;;
31298;SDS011;17927;52.350;13.402;2022-10-22T15:25:52;65.60;;;35.08;;
31298;SDS011;17927;52.350;13.402;2022-10-22T15:28:17;47.13;;;22.08;;
31298;SDS011;17927;52.350;13.402;2022-10-22T15:30:43;25.33;;;14.60;;
31298;SDS011;17927;52.350;13.402;2022-10-22T15:33:08;12.35;;;8.48;;
31298;SDS011;17927;52.350;13.402;2022-10-22T15:35:34;10.82;;;6.30;;
31298;SDS011;17927;52.350;13.402;2022-10-22T15:38:00;10.77;;;7.03;;
31298;SDS011;17927;52.350;13.402;2022-10-22T15:40:25;10.40;;;6.50;;
31298;SDS011;17927;52.350;13.402;2022-10-22T15:42:50;9.82;;;7.97;;
31298;SDS011;17927;52.350;13.402;2022-10-22T15:45:15;13.93;;;8.48;;
31298;SDS011;17927;52.350;13.402;2022-10-22T15:47:44;12.63;;;8.23;;
31298;SDS011;17927;52.350;13.402;2022-10-22T15:50:10;10.68;;;6.57;;
31298;SDS011;17927;52.350;13.402;2022-10-22T15:52:35;12.27;;;5.70;;
31298;SDS011;17927;52.350;13.402;2022-10-22T15:55:00;8.73;;;4.93;;
31298;SDS011;17927;52.350;13.402;2022-10-22T15:57:30;5.07;;;2.75;;
31298;SDS011;17927;52.350;13.402;2022-10-22T15:59:56;7.50;;;3.03;;
31298;SDS011;17927;52.350;13.402;2022-10-22T16:02:21;5.82;;;3.47;;
31298;SDS011;17927;52.350;13.402;2022-10-22T16:04:46;5.50;;;2.33;;
31298;SDS011;17927;52.350;13.402;2022-10-22T16:07:11;5.45;;;2.22;;
31298;SDS011;17927;52.350;13.402;2022-10-22T16:09:37;7.93;;;2.30;;
31298;SDS011;17927;52.350;13.402;2022-10-22T16:12:02;3.22;;;1.92;;
31298;SDS011;17927;52.350;13.402;2022-10-22T16:14:27;3.03;;;2.13;;
31298;SDS011;17927;52.350;13.402;2022-10-22T16:16:53;5.95;;;1.95;;
31298;SDS011;17927;52.350;13.402;2022-10-22T16:19:20;4.22;;;1.90;;